Terminal Aerodrome Forecast
Issued by NWS Sterling, VA

Home | Current Version | Previous Version | Text Only | Print | Product List | Glossary On
Versions: 1 2 3 4 5 6 7 8 9 10 11 12 13 14 15 16 17 18 19 20 21 22 23 24 25 26 27
602
FTUS41 KLWX 211720
TAFBWI
TAF
KBWI 211720Z 2118/2224 22011G19KT P6SM FEW035 SCT200
     FM220000 23007KT P6SM SCT025 BKN150
     FM220200 27006KT P6SM SCT025 OVC150
     FM220600 01007KT 6SM -DZ BR SCT025 OVC045
     FM221200 04007KT 6SM -RADZ BR SCT025 OVC040
     FM221500 04008KT 1 1/2SM -RADZ BR BKN008 OVC030=

USA.gov is the U.S. government's official web portal to all federal, state and local government web resources and services.